Barrett Parkway, Georgia
Current Conditions -  °F | °C
As of 10:47 PM on Wednesday 26 Nov 2014 (Local Time) from KRYY Reporting Station
Scattered Clouds Scattered Clouds  
Wind Chill: 46°   Ceiling: Unl
Heat Index: 46°   Visibility: 7mi
Dew Point: 28°   Wind: 0mph
Humidity: 50%   Direction: NA
Pressure: 30.07"   Gusts: NA
Location:  34.0374°N, 84.5922°W
Report Text: KRYY 270347Z 00000KT 7SM SCT055 08/M02 A3007
Loading
Personal Weather Stations






























Interactive Weather Map New forecast layout! Learn more

10-Day Weather Forecast

Advertisements
Track Severe Weather on mobile